createdAt,value
2023-01-09T00:00:26.451Z,6.80
2023-01-09T00:02:53.809Z,6.28
2023-01-09T00:05:20.659Z,5.78
2023-01-09T00:07:48.065Z,7.10
2023-01-09T00:10:16.620Z,6.97
2023-01-09T00:12:43.339Z,10.38
2023-01-09T00:15:11.400Z,6.15
2023-01-09T00:17:38.058Z,6.93
2023-01-09T00:20:07.139Z,8.40
2023-01-09T00:22:33.929Z,7.20
2023-01-09T00:25:00.884Z,8.02
2023-01-09T00:27:34.938Z,9.95
2023-01-09T00:30:02.122Z,9.18
2023-01-09T00:32:29.246Z,10.88
2023-01-09T00:34:56.210Z,10.88
2023-01-09T00:37:23.220Z,10.43
2023-01-09T00:39:49.913Z,11.13
2023-01-09T00:42:21.283Z,9.82
2023-01-09T00:44:51.369Z,9.18
2023-01-09T00:47:22.327Z,7.90
2023-01-09T00:49:50.436Z,12.07
2023-01-09T00:52:17.195Z,8.75
2023-01-09T00:54:44.865Z,10.73
2023-01-09T00:57:14.087Z,8.93
2023-01-09T00:59:42.270Z,10.77
2023-01-09T01:02:09.654Z,8.88
2023-01-09T01:04:55.264Z,10.38
2023-01-09T01:07:40.138Z,9.57
2023-01-09T01:10:17.316Z,10.55
2023-01-09T01:12:44.773Z,9.07
2023-01-09T01:15:12.181Z,10.90
2023-01-09T01:17:40.546Z,9.95
2023-01-09T01:20:10.833Z,11.25
2023-01-09T01:22:37.573Z,12.00
2023-01-09T01:25:05.520Z,10.60
2023-01-09T01:27:32.367Z,11.88
2023-01-09T01:29:59.160Z,12.32
2023-01-09T01:32:25.771Z,10.45
2023-01-09T01:34:52.630Z,12.55
2023-01-09T01:37:22.073Z,11.77
2023-01-09T01:39:48.923Z,11.63
2023-01-09T01:42:16.166Z,11.90
2023-01-09T01:45:25.475Z,13.30
2023-01-09T01:48:25.771Z,11.75
2023-01-09T01:51:03.027Z,11.63
2023-01-09T01:53:42.298Z,12.05
2023-01-09T01:56:18.513Z,11.07
2023-01-09T01:58:56.572Z,11.43
2023-01-09T02:01:25.346Z,10.45
2023-01-09T02:03:54.562Z,10.38
2023-01-09T02:06:21.173Z,10.23
2023-01-09T02:08:48.347Z,10.13
2023-01-09T02:11:15.471Z,9.77
2023-01-09T02:13:42.333Z,10.40
2023-01-09T02:16:31.460Z,13.57
2023-01-09T02:19:12.655Z,10.20
2023-01-09T02:22:07.998Z,9.70
2023-01-09T02:25:14.325Z,9.38
2023-01-09T02:28:14.345Z,8.75
2023-01-09T02:30:46.087Z,9.20
2023-01-09T02:33:54.722Z,8.30
2023-01-09T02:36:50.535Z,11.18
2023-01-09T02:39:50.048Z,8.27
2023-01-09T02:42:20.048Z,8.05
2023-01-09T02:44:47.065Z,8.45
2023-01-09T02:47:17.052Z,9.00
2023-01-09T02:49:52.069Z,8.85
2023-01-09T02:53:02.204Z,10.30
2023-01-09T02:55:47.983Z,10.90
2023-01-09T02:58:51.643Z,9.80
2023-01-09T03:01:26.068Z,9.35
2023-01-09T03:04:09.186Z,8.60
2023-01-09T03:06:47.499Z,7.03
2023-01-09T03:09:20.341Z,8.80
2023-01-09T03:11:53.335Z,6.25
2023-01-09T03:14:22.327Z,6.80
2023-01-09T03:16:53.592Z,5.75
2023-01-09T03:19:22.332Z,6.57
2023-01-09T03:21:49.852Z,4.07
2023-01-09T03:24:16.613Z,7.47
2023-01-09T03:26:43.479Z,4.50
2023-01-09T03:29:10.720Z,3.33
2023-01-09T03:31:38.403Z,3.60
2023-01-09T03:34:05.295Z,3.22
2023-01-09T03:36:32.653Z,2.80
2023-01-09T03:38:59.269Z,2.97
2023-01-09T03:41:25.963Z,3.17
2023-01-09T03:43:53.093Z,5.68
2023-01-09T03:46:20.327Z,3.08
2023-01-09T03:48:47.231Z,3.47
2023-01-09T03:51:13.872Z,5.93
2023-01-09T03:53:41.380Z,6.32
2023-01-09T03:56:08.055Z,5.30
2023-01-09T03:58:34.785Z,5.63
2023-01-09T04:01:03.690Z,6.45
2023-01-09T04:03:30.693Z,3.70
2023-01-09T04:05:58.402Z,3.30
2023-01-09T04:08:25.141Z,3.00
2023-01-09T04:10:52.279Z,3.30
2023-01-09T04:13:19.084Z,3.20
2023-01-09T04:15:46.467Z,4.22
2023-01-09T04:18:13.795Z,5.18
2023-01-09T04:20:41.585Z,3.53
2023-01-09T04:23:08.688Z,4.13
2023-01-09T04:25:35.536Z,4.65
2023-01-09T04:28:02.209Z,3.97
2023-01-09T04:30:28.895Z,4.45
2023-01-09T04:32:55.574Z,2.95
2023-01-09T04:35:22.385Z,3.50
2023-01-09T04:37:49.140Z,5.45
2023-01-09T04:40:15.902Z,4.45
2023-01-09T04:42:42.828Z,4.32
2023-01-09T04:45:10.973Z,3.95
2023-01-09T04:47:37.903Z,3.25
2023-01-09T04:50:06.179Z,2.10
2023-01-09T04:52:32.856Z,2.95
2023-01-09T04:54:59.551Z,4.72
2023-01-09T04:57:26.206Z,3.25
2023-01-09T04:59:54.191Z,1.95
2023-01-09T05:02:21.517Z,2.03
2023-01-09T05:04:48.357Z,2.58
2023-01-09T05:07:15.075Z,1.75
2023-01-09T05:09:42.065Z,2.05
2023-01-09T05:12:09.749Z,2.65
2023-01-09T05:14:36.441Z,3.05
2023-01-09T05:17:03.092Z,4.00
2023-01-09T05:19:29.670Z,2.58
2023-01-09T05:21:57.143Z,1.92
2023-01-09T05:24:24.911Z,1.55
2023-01-09T05:26:52.340Z,0.85
2023-01-09T05:29:19.099Z,1.25
2023-01-09T05:31:45.804Z,0.60
2023-01-09T05:34:12.667Z,3.05
2023-01-09T05:36:39.241Z,0.50
2023-01-09T05:39:06.690Z,0.50
2023-01-09T05:41:33.327Z,1.58
2023-01-09T05:44:00.155Z,0.40
2023-01-09T05:46:27.332Z,2.75
2023-01-09T05:48:54.608Z,1.48
2023-01-09T05:51:21.245Z,0.52
2023-01-09T05:53:48.166Z,0.75
2023-01-09T05:56:16.424Z,0.43
2023-01-09T05:58:43.377Z,0.38
2023-01-09T06:01:10.411Z,0.55
2023-01-09T06:03:37.016Z,0.22
2023-01-09T06:06:04.063Z,0.93
2023-01-09T06:08:30.963Z,0.98
2023-01-09T06:10:58.064Z,0.30
2023-01-09T06:13:24.740Z,1.52
2023-01-09T06:15:51.594Z,1.98
2023-01-09T06:18:18.999Z,1.02
2023-01-09T06:20:46.238Z,1.27
2023-01-09T06:23:13.738Z,1.67
2023-01-09T06:25:40.811Z,1.55
2023-01-09T06:28:07.697Z,0.80
2023-01-09T06:30:34.729Z,0.95
2023-01-09T06:33:02.268Z,0.32
2023-01-09T06:35:29.244Z,0.35
2023-01-09T06:37:55.871Z,2.00
2023-01-09T06:40:23.969Z,1.63
2023-01-09T06:42:51.092Z,0.30
2023-01-09T06:45:18.773Z,2.92
2023-01-09T06:47:45.445Z,1.60
2023-01-09T06:50:12.642Z,0.30
2023-01-09T06:52:41.099Z,1.10
2023-01-09T06:55:09.529Z,1.95
2023-01-09T06:57:37.010Z,1.77
2023-01-09T07:00:04.978Z,0.68
2023-01-09T07:02:31.640Z,0.60
2023-01-09T07:04:59.379Z,2.35
2023-01-09T07:07:26.113Z,1.85
2023-01-09T07:09:53.204Z,0.70
2023-01-09T07:12:20.174Z,2.55
2023-01-09T07:14:46.903Z,1.58
2023-01-09T07:17:15.102Z,3.58
2023-01-09T07:19:42.006Z,0.80
2023-01-09T07:22:09.064Z,0.40
2023-01-09T07:24:35.764Z,0.50
2023-01-09T07:27:03.047Z,1.17
2023-01-09T07:29:30.696Z,2.05
2023-01-09T07:31:57.448Z,1.67
2023-01-09T07:34:24.124Z,0.88
2023-01-09T07:36:51.485Z,2.38
2023-01-09T07:39:18.251Z,1.17
2023-01-09T07:41:45.254Z,2.85
2023-01-09T07:44:11.892Z,0.60
2023-01-09T07:46:38.888Z,0.90
2023-01-09T07:49:05.670Z,1.15
2023-01-09T07:51:32.457Z,2.42
2023-01-09T07:53:59.266Z,0.63
2023-01-09T07:56:25.883Z,1.95
2023-01-09T07:58:52.605Z,1.70
2023-01-09T08:01:19.545Z,0.80
2023-01-09T08:03:46.470Z,1.10
2023-01-09T08:06:13.246Z,3.78
2023-01-09T08:08:39.979Z,1.33
2023-01-09T08:11:06.704Z,0.75
2023-01-09T08:13:33.318Z,0.65
2023-01-09T08:16:00.208Z,0.95
2023-01-09T08:18:26.921Z,0.47
2023-01-09T08:20:54.734Z,1.60
2023-01-09T08:23:21.696Z,1.23
2023-01-09T08:25:48.463Z,1.77
2023-01-09T08:28:15.192Z,1.50
2023-01-09T08:30:41.840Z,1.40
2023-01-09T08:33:08.634Z,1.60
2023-01-09T08:35:37.705Z,1.33
2023-01-09T08:38:04.536Z,1.50
2023-01-09T08:40:31.253Z,1.42
2023-01-09T08:43:16.709Z,1.88
2023-01-09T08:46:06.312Z,1.15
2023-01-09T08:48:32.959Z,0.73
2023-01-09T08:50:59.658Z,1.92
2023-01-09T08:53:26.316Z,1.30
2023-01-09T08:55:53.028Z,4.03
2023-01-09T08:58:19.714Z,1.42
2023-01-09T09:00:46.373Z,1.73
2023-01-09T09:03:13.122Z,2.22
2023-01-09T09:05:39.742Z,1.15
2023-01-09T09:08:07.734Z,2.03
2023-01-09T09:10:34.871Z,1.63
2023-01-09T09:13:02.287Z,2.50
2023-01-09T09:15:29.425Z,3.38
2023-01-09T09:17:58.677Z,2.60
2023-01-09T09:20:28.674Z,3.20
2023-01-09T09:22:55.690Z,2.35
2023-01-09T09:25:23.223Z,3.13
2023-01-09T09:27:50.574Z,3.17
2023-01-09T09:30:19.073Z,1.77
2023-01-09T09:32:46.728Z,2.58
2023-01-09T09:35:13.372Z,1.27
2023-01-09T09:37:40.202Z,1.75
2023-01-09T09:40:18.360Z,2.15
2023-01-09T09:43:15.290Z,1.67
2023-01-09T09:45:50.598Z,2.42
2023-01-09T09:48:43.641Z,1.25
2023-01-09T09:51:32.194Z,2.58
2023-01-09T09:54:02.904Z,3.60
2023-01-09T09:56:35.325Z,2.03
2023-01-09T09:59:07.224Z,0.80
2023-01-09T10:01:39.232Z,1.73
2023-01-09T10:04:11.592Z,2.05
2023-01-09T10:06:43.225Z,0.90
2023-01-09T10:09:29.018Z,1.40
2023-01-09T10:12:10.985Z,1.10
2023-01-09T10:14:39.206Z,3.70
2023-01-09T10:18:07.597Z,1.30
2023-01-09T10:21:03.382Z,1.70
2023-01-09T10:23:53.151Z,1.60
2023-01-09T10:26:44.245Z,1.15
2023-01-09T10:29:27.767Z,2.33
2023-01-09T10:32:20.610Z,2.95
2023-01-09T10:35:14.094Z,2.10
2023-01-09T10:37:45.443Z,6.65
2023-01-09T10:40:36.161Z,6.90
2023-01-09T10:43:07.268Z,2.53
2023-01-09T10:45:37.700Z,1.55
2023-01-09T10:48:33.915Z,1.92
2023-01-09T10:51:00.860Z,1.92
2023-01-09T10:53:38.806Z,3.17
2023-01-09T10:56:15.415Z,3.65
2023-01-09T10:58:42.069Z,2.55
2023-01-09T11:01:09.768Z,4.80
2023-01-09T11:03:37.536Z,1.38
2023-01-09T11:06:05.115Z,1.70
2023-01-09T11:08:43.440Z,2.22
2023-01-09T11:11:10.537Z,6.43
2023-01-09T11:13:38.652Z,2.22
2023-01-09T11:16:11.466Z,2.03
2023-01-09T11:18:40.410Z,0.88
2023-01-09T11:21:38.435Z,1.25
2023-01-09T11:24:27.631Z,5.53
2023-01-09T11:27:33.029Z,6.15
2023-01-09T11:30:26.494Z,2.95
2023-01-09T11:32:54.580Z,6.78
2023-01-09T11:35:26.754Z,5.72
2023-01-09T11:38:09.108Z,4.97
2023-01-09T11:40:47.284Z,4.65
2023-01-09T11:43:17.516Z,3.17
2023-01-09T11:46:00.159Z,3.83
2023-01-09T11:48:43.633Z,4.32
2023-01-09T11:51:22.766Z,2.97
2023-01-09T11:54:17.254Z,4.22
2023-01-09T11:56:44.599Z,3.30
2023-01-09T11:59:17.168Z,1.45
2023-01-09T12:02:22.663Z,2.45
2023-01-09T12:04:56.199Z,2.33
2023-01-09T12:07:48.269Z,3.30
2023-01-09T12:10:42.933Z,1.90
2023-01-09T12:13:44.795Z,1.80
2023-01-09T12:16:31.810Z,3.55
2023-01-09T12:19:40.618Z,1.27
2023-01-09T12:22:36.811Z,1.33
2023-01-09T12:25:13.703Z,2.08
2023-01-09T12:28:02.302Z,1.98
2023-01-09T12:30:44.050Z,2.15
2023-01-09T12:33:29.587Z,2.47
2023-01-09T12:36:23.519Z,2.08
2023-01-09T12:39:04.499Z,1.70
2023-01-09T12:41:43.774Z,2.85
2023-01-09T12:44:34.937Z,1.45
2023-01-09T12:47:40.143Z,2.63
2023-01-09T12:50:28.796Z,1.90
2023-01-09T12:53:23.961Z,2.03
2023-01-09T12:56:04.174Z,2.15
2023-01-09T12:58:43.625Z,2.03
2023-01-09T13:01:18.199Z,2.35
2023-01-09T13:03:54.933Z,3.03
2023-01-09T13:06:23.688Z,3.42
2023-01-09T13:09:09.542Z,2.45
2023-01-09T13:11:43.101Z,3.47
2023-01-09T13:14:20.158Z,1.93
2023-01-09T13:16:51.706Z,1.77
2023-01-09T13:19:28.576Z,1.45
2023-01-09T13:21:56.512Z,2.42
2023-01-09T13:24:44.851Z,1.73
2023-01-09T13:27:15.967Z,1.55
2023-01-09T13:29:45.704Z,0.93
2023-01-09T13:32:55.776Z,2.83
2023-01-09T13:35:22.368Z,3.03
2023-01-09T13:37:53.123Z,3.17
2023-01-09T13:40:30.192Z,2.65
2023-01-09T13:42:59.401Z,3.85
2023-01-09T13:45:28.870Z,3.78
2023-01-09T13:48:40.021Z,2.92
2023-01-09T13:51:51.935Z,5.50
2023-01-09T13:54:58.302Z,3.88
2023-01-09T13:57:36.141Z,4.25
2023-01-09T14:00:46.044Z,2.28
2023-01-09T14:03:20.374Z,2.42
2023-01-09T14:06:13.509Z,2.30
2023-01-09T14:08:42.100Z,2.33
2023-01-09T14:11:09.341Z,1.80
2023-01-09T14:13:46.105Z,3.22
2023-01-09T14:16:24.625Z,3.00
2023-01-09T14:19:01.718Z,3.05
2023-01-09T14:21:46.908Z,2.17
2023-01-09T14:24:25.275Z,1.98
2023-01-09T14:26:57.185Z,2.15
2023-01-09T14:29:41.227Z,3.00
2023-01-09T14:32:30.017Z,2.28
2023-01-09T14:35:16.775Z,3.38
2023-01-09T14:37:46.372Z,3.13
2023-01-09T14:40:21.822Z,2.17
2023-01-09T14:42:52.517Z,2.55
2023-01-09T14:45:22.963Z,3.53
2023-01-09T14:48:01.053Z,4.30
2023-01-09T14:50:51.362Z,2.28
2023-01-09T14:53:24.722Z,1.83
2023-01-09T14:55:58.968Z,2.87
2023-01-09T15:01:04.046Z,1.90
2023-01-09T15:06:04.603Z,1.52
2023-01-09T15:08:32.171Z,3.80
2023-01-09T15:10:59.754Z,3.83
2023-01-09T15:13:35.055Z,3.53
2023-01-09T15:16:04.940Z,4.07
2023-01-09T15:18:38.954Z,3.10
2023-01-09T15:21:05.901Z,3.40
2023-01-09T15:23:33.741Z,2.22
2023-01-09T15:26:25.434Z,2.70
2023-01-09T15:28:54.263Z,2.83
2023-01-09T15:31:24.068Z,1.30
2023-01-09T15:33:53.148Z,1.58
2023-01-09T15:36:26.357Z,2.08
2023-01-09T15:38:58.394Z,1.73
2023-01-09T15:41:46.340Z,4.90
2023-01-09T15:44:36.778Z,10.43
2023-01-09T15:47:06.147Z,10.07
2023-01-09T15:49:34.204Z,5.93
2023-01-09T15:52:01.569Z,4.68
2023-01-09T15:54:30.547Z,3.03
2023-01-09T15:57:31.143Z,1.10
2023-01-09T16:00:32.405Z,1.80
2023-01-09T16:03:12.137Z,4.82
2023-01-09T16:05:52.805Z,2.00
2023-01-09T16:08:22.206Z,2.65
2023-01-09T16:10:51.104Z,5.68
2023-01-09T16:13:18.262Z,6.35
2023-01-09T16:15:45.898Z,6.55
2023-01-09T16:18:40.078Z,7.65
2023-01-09T16:21:23.082Z,3.75
2023-01-09T16:24:06.312Z,2.10
2023-01-09T16:26:33.555Z,2.55
2023-01-09T16:29:34.227Z,0.95
2023-01-09T16:32:02.893Z,1.88
2023-01-09T16:34:30.191Z,2.28
2023-01-09T16:36:57.168Z,3.17
2023-01-09T16:39:25.765Z,0.68
2023-01-09T16:42:11.079Z,0.47
2023-01-09T16:44:38.085Z,7.82
2023-01-09T16:47:04.931Z,4.85
2023-01-09T16:49:31.557Z,1.67
2023-01-09T16:52:03.041Z,0.90
2023-01-09T16:54:30.814Z,0.73
2023-01-09T16:56:57.642Z,1.08
2023-01-09T16:59:26.964Z,1.10
2023-01-09T17:01:54.382Z,2.28
2023-01-09T17:04:21.260Z,2.95
2023-01-09T17:06:49.076Z,2.25
2023-01-09T17:09:22.846Z,2.20
2023-01-09T17:11:50.377Z,2.80
2023-01-09T17:14:17.084Z,3.20
2023-01-09T17:16:46.165Z,4.40
2023-01-09T17:19:18.876Z,3.90
2023-01-09T17:21:45.762Z,3.80
2023-01-09T17:24:31.128Z,1.42
2023-01-09T17:27:16.425Z,1.52
2023-01-09T17:29:44.550Z,0.65
2023-01-09T17:32:16.116Z,2.35
2023-01-09T17:37:16.966Z,1.48
2023-01-09T17:39:44.640Z,2.35
2023-01-09T17:42:11.784Z,3.33
2023-01-09T17:44:38.913Z,4.40
2023-01-09T17:47:06.393Z,3.72
2023-01-09T17:49:33.101Z,4.95
2023-01-09T17:51:59.941Z,2.15
2023-01-09T17:54:26.562Z,3.67
2023-01-09T17:56:54.327Z,4.88
2023-01-09T17:59:21.077Z,12.63
2023-01-09T18:01:47.989Z,13.15
2023-01-09T18:04:14.739Z,35.42
2023-01-09T18:06:41.553Z,61.83
2023-01-09T18:09:11.055Z,38.10
2023-01-09T18:11:37.699Z,25.08
2023-01-09T18:14:04.627Z,14.20
2023-01-09T18:16:31.460Z,9.18
2023-01-09T18:18:59.083Z,5.07
2023-01-09T18:21:27.213Z,4.57
2023-01-09T18:23:54.454Z,6.50
2023-01-09T18:26:21.757Z,5.00
2023-01-09T18:28:55.600Z,3.25
2023-01-09T18:31:24.211Z,4.13
2023-01-09T18:33:52.505Z,13.23
2023-01-09T18:36:22.180Z,18.23
2023-01-09T18:38:53.820Z,12.52
2023-01-09T18:41:24.212Z,11.98
2023-01-09T18:43:58.406Z,6.50
2023-01-09T18:48:57.466Z,10.57
2023-01-09T18:51:26.400Z,7.85
2023-01-09T18:53:53.276Z,6.47
2023-01-09T18:56:20.396Z,11.40
2023-01-09T18:58:50.200Z,11.48
2023-01-09T19:01:17.853Z,8.68
2023-01-09T19:03:45.328Z,9.30
2023-01-09T19:06:12.348Z,10.57
2023-01-09T19:08:39.163Z,15.77
2023-01-09T19:11:05.839Z,16.27
2023-01-09T19:13:34.390Z,16.98
2023-01-09T19:16:06.220Z,8.27
2023-01-09T19:18:35.206Z,8.73
2023-01-09T19:21:09.771Z,10.73
2023-01-09T19:23:36.452Z,8.40
2023-01-09T19:26:08.987Z,52.17
2023-01-09T19:28:36.615Z,22.05
2023-01-09T19:31:03.510Z,24.05
2023-01-09T19:33:30.196Z,10.70
2023-01-09T19:35:56.971Z,14.07
2023-01-09T19:38:23.891Z,17.27
2023-01-09T19:40:50.890Z,8.77
2023-01-09T19:43:26.180Z,12.25
2023-01-09T19:45:56.469Z,9.43
2023-01-09T19:48:24.168Z,11.98
2023-01-09T19:50:55.538Z,13.85
2023-01-09T19:53:22.574Z,19.17
2023-01-09T19:55:49.174Z,17.05
2023-01-09T19:58:16.086Z,20.48
2023-01-09T20:00:42.781Z,22.33
2023-01-09T20:03:09.736Z,14.93
2023-01-09T20:05:36.488Z,7.57
2023-01-09T20:08:06.461Z,9.25
2023-01-09T20:10:33.648Z,7.95
2023-01-09T20:13:00.256Z,9.07
2023-01-09T20:15:26.871Z,6.60
2023-01-09T20:17:53.915Z,9.15
2023-01-09T20:20:20.715Z,9.40
2023-01-09T20:22:47.383Z,3.60
2023-01-09T20:25:14.147Z,8.20
2023-01-09T20:27:40.868Z,8.38
2023-01-09T20:30:09.031Z,8.27
2023-01-09T20:32:37.250Z,5.47
2023-01-09T20:35:04.276Z,9.63
2023-01-09T20:37:31.840Z,10.15
2023-01-09T20:39:58.999Z,8.63
2023-01-09T20:42:25.782Z,8.82
2023-01-09T20:44:52.417Z,7.35
2023-01-09T20:47:19.188Z,6.35
2023-01-09T20:49:46.009Z,5.38
2023-01-09T20:52:12.686Z,6.35
2023-01-09T20:54:41.877Z,6.30
2023-01-09T20:57:08.805Z,3.58
2023-01-09T20:59:35.541Z,8.50
2023-01-09T21:02:02.286Z,6.32
2023-01-09T21:04:31.370Z,6.93
2023-01-09T21:06:58.052Z,9.27
2023-01-09T21:09:26.331Z,7.22
2023-01-09T21:11:52.950Z,4.10
2023-01-09T21:14:20.262Z,6.47
2023-01-09T21:16:54.496Z,5.05
2023-01-09T21:19:22.753Z,6.80
2023-01-09T21:21:51.592Z,6.88
2023-01-09T21:24:19.678Z,3.85
2023-01-09T21:26:46.425Z,4.88
2023-01-09T21:29:13.261Z,4.32
2023-01-09T21:31:39.945Z,4.93
2023-01-09T21:34:08.209Z,6.07
2023-01-09T21:36:35.777Z,6.38
2023-01-09T21:39:04.908Z,5.78
2023-01-09T21:41:51.673Z,4.75
2023-01-09T21:44:36.923Z,6.38
2023-01-09T21:47:03.723Z,5.28
2023-01-09T21:49:35.343Z,5.25
2023-01-09T21:52:06.123Z,5.75
2023-01-09T21:54:33.653Z,4.70
2023-01-09T21:57:00.741Z,6.05
2023-01-09T21:59:27.903Z,8.40
2023-01-09T22:01:54.729Z,5.90
2023-01-09T22:04:24.871Z,7.25
2023-01-09T22:06:51.844Z,7.28
2023-01-09T22:09:18.464Z,5.05
2023-01-09T22:11:45.390Z,4.57
2023-01-09T22:14:14.701Z,4.85
2023-01-09T22:16:43.909Z,4.72
2023-01-09T22:19:14.849Z,5.72
2023-01-09T22:21:41.603Z,5.32
2023-01-09T22:24:09.583Z,4.03
2023-01-09T22:26:36.206Z,10.27
2023-01-09T22:29:03.007Z,7.60
2023-01-09T22:31:29.826Z,8.95
2023-01-09T22:33:59.011Z,8.73
2023-01-09T22:36:28.012Z,7.78
2023-01-09T22:38:55.673Z,7.55
2023-01-09T22:41:23.294Z,6.82
2023-01-09T22:43:49.911Z,9.32
2023-01-09T22:46:16.614Z,9.63
2023-01-09T22:48:43.293Z,7.00
2023-01-09T22:51:13.358Z,7.03
2023-01-09T22:53:40.503Z,7.45
2023-01-09T22:56:09.067Z,6.13
2023-01-09T22:58:36.853Z,10.25
2023-01-09T23:01:04.124Z,10.23
2023-01-09T23:03:30.812Z,7.82
2023-01-09T23:06:05.947Z,9.90
2023-01-09T23:08:33.480Z,8.55
2023-01-09T23:11:00.856Z,8.38
2023-01-09T23:13:28.273Z,10.57
2023-01-09T23:15:55.416Z,10.07
2023-01-09T23:18:22.102Z,8.18
2023-01-09T23:20:52.543Z,11.80
2023-01-09T23:23:21.081Z,9.50
2023-01-09T23:25:52.295Z,7.22
2023-01-09T23:28:19.485Z,6.85
2023-01-09T23:30:46.582Z,9.90
2023-01-09T23:33:13.804Z,6.85
2023-01-09T23:35:40.648Z,7.60
2023-01-09T23:38:07.432Z,8.52
2023-01-09T23:40:36.598Z,8.60
2023-01-09T23:43:09.658Z,9.32
2023-01-09T23:45:37.950Z,7.85
2023-01-09T23:48:06.131Z,7.95
2023-01-09T23:50:33.073Z,6.80
2023-01-09T23:52:59.722Z,10.27
2023-01-09T23:55:26.589Z,5.68
2023-01-09T23:57:56.080Z,11.20
